Terminal Aerodrome Forecast
Issued by NWS

Home | Current Version | Previous Version | Text Only | Print | Product List | Glossary On
Versions: 1 2 3 4 5 6 7 8 9 10 11 12 13
000
FTUS46 KSEW 281300 AAA
TAFBLI
TAF AMD
KBLI 281320Z 2813/2912 17009KT P6SM SCT007 SCT100
      TEMPO 2813/2815 BKN007 BKN100
     FM281500 17009KT P6SM OVC007
     FM281800 17007KT P6SM BKN020
     FM282000 17007KT P6SM BKN030=

USA.gov is the U.S. government's official web portal to all federal, state and local government web resources and services.